sensor_id;sensor_type;location;lat;lon;timestamp;P1;durP1;ratioP1;P2;durP2;ratioP2
6392;SDS011;3229;42.674;23.282;2024-02-15T00:02:14;4.77;;;4.23;;
6392;SDS011;3229;42.674;23.282;2024-02-15T00:04:41;9.90;;;4.87;;
6392;SDS011;3229;42.674;23.282;2024-02-15T00:07:07;6.53;;;5.27;;
6392;SDS011;3229;42.674;23.282;2024-02-15T00:09:34;5.00;;;4.50;;
6392;SDS011;3229;42.674;23.282;2024-02-15T00:12:03;6.17;;;5.57;;
6392;SDS011;3229;42.674;23.282;2024-02-15T00:14:30;5.07;;;4.60;;
6392;SDS011;3229;42.674;23.282;2024-02-15T00:16:57;8.33;;;5.30;;
6392;SDS011;3229;42.674;23.282;2024-02-15T00:19:24;5.60;;;5.00;;
6392;SDS011;3229;42.674;23.282;2024-02-15T00:21:51;5.37;;;4.83;;
6392;SDS011;3229;42.674;23.282;2024-02-15T00:24:19;5.17;;;4.67;;
6392;SDS011;3229;42.674;23.282;2024-02-15T00:26:46;5.20;;;4.70;;
6392;SDS011;3229;42.674;23.282;2024-02-15T00:29:14;4.70;;;4.30;;
6392;SDS011;3229;42.674;23.282;2024-02-15T00:31:41;5.17;;;4.67;;
6392;SDS011;3229;42.674;23.282;2024-02-15T00:34:08;5.53;;;4.57;;
6392;SDS011;3229;42.674;23.282;2024-02-15T00:36:35;4.80;;;4.30;;
6392;SDS011;3229;42.674;23.282;2024-02-15T00:39:01;6.73;;;4.70;;
6392;SDS011;3229;42.674;23.282;2024-02-15T00:41:31;5.20;;;4.70;;
6392;SDS011;3229;42.674;23.282;2024-02-15T00:43:59;7.37;;;4.77;;
6392;SDS011;3229;42.674;23.282;2024-02-15T00:46:27;5.40;;;4.90;;
6392;SDS011;3229;42.674;23.282;2024-02-15T00:48:54;5.27;;;4.53;;
6392;SDS011;3229;42.674;23.282;2024-02-15T00:51:23;5.40;;;4.80;;
6392;SDS011;3229;42.674;23.282;2024-02-15T00:53:49;5.97;;;5.27;;
6392;SDS011;3229;42.674;23.282;2024-02-15T00:56:16;4.97;;;4.23;;
6392;SDS011;3229;42.674;23.282;2024-02-15T00:58:43;4.87;;;4.43;;
6392;SDS011;3229;42.674;23.282;2024-02-15T01:01:10;5.57;;;5.00;;
6392;SDS011;3229;42.674;23.282;2024-02-15T01:03:38;5.13;;;4.73;;
6392;SDS011;3229;42.674;23.282;2024-02-15T01:06:05;6.23;;;4.73;;
6392;SDS011;3229;42.674;23.282;2024-02-15T01:08:32;5.13;;;4.40;;
6392;SDS011;3229;42.674;23.282;2024-02-15T01:10:59;4.93;;;4.43;;
6392;SDS011;3229;42.674;23.282;2024-02-15T01:13:26;5.30;;;4.80;;
6392;SDS011;3229;42.674;23.282;2024-02-15T01:15:53;5.10;;;4.60;;
6392;SDS011;3229;42.674;23.282;2024-02-15T01:18:20;5.33;;;4.63;;
6392;SDS011;3229;42.674;23.282;2024-02-15T01:20:50;6.30;;;4.33;;
6392;SDS011;3229;42.674;23.282;2024-02-15T01:23:17;6.67;;;4.70;;
6392;SDS011;3229;42.674;23.282;2024-02-15T01:25:45;5.67;;;4.50;;
6392;SDS011;3229;42.674;23.282;2024-02-15T01:28:12;8.33;;;5.57;;
6392;SDS011;3229;42.674;23.282;2024-02-15T01:30:39;5.60;;;5.00;;
6392;SDS011;3229;42.674;23.282;2024-02-15T01:33:08;6.57;;;4.70;;
6392;SDS011;3229;42.674;23.282;2024-02-15T01:35:36;5.00;;;4.50;;
6392;SDS011;3229;42.674;23.282;2024-02-15T01:38:04;5.10;;;4.60;;
6392;SDS011;3229;42.674;23.282;2024-02-15T01:40:32;5.03;;;4.53;;
6392;SDS011;3229;42.674;23.282;2024-02-15T01:43:00;5.13;;;4.60;;
6392;SDS011;3229;42.674;23.282;2024-02-15T01:45:27;5.07;;;4.57;;
6392;SDS011;3229;42.674;23.282;2024-02-15T01:47:53;5.20;;;4.70;;
6392;SDS011;3229;42.674;23.282;2024-02-15T01:50:21;5.07;;;4.13;;
6392;SDS011;3229;42.674;23.282;2024-02-15T01:52:51;7.53;;;4.43;;
6392;SDS011;3229;42.674;23.282;2024-02-15T01:55:23;6.80;;;4.87;;
6392;SDS011;3229;42.674;23.282;2024-02-15T01:57:50;7.33;;;4.97;;
6392;SDS011;3229;42.674;23.282;2024-02-15T02:00:17;6.90;;;4.43;;
6392;SDS011;3229;42.674;23.282;2024-02-15T02:02:45;5.40;;;4.90;;
6392;SDS011;3229;42.674;23.282;2024-02-15T02:05:13;5.40;;;4.50;;
6392;SDS011;3229;42.674;23.282;2024-02-15T02:07:40;5.23;;;4.73;;
6392;SDS011;3229;42.674;23.282;2024-02-15T02:10:07;5.20;;;4.70;;
6392;SDS011;3229;42.674;23.282;2024-02-15T02:12:37;4.70;;;4.30;;
6392;SDS011;3229;42.674;23.282;2024-02-15T02:15:05;6.10;;;5.13;;
6392;SDS011;3229;42.674;23.282;2024-02-15T02:17:33;5.47;;;4.50;;
6392;SDS011;3229;42.674;23.282;2024-02-15T02:20:00;5.73;;;4.87;;
6392;SDS011;3229;42.674;23.282;2024-02-15T02:22:33;7.43;;;4.23;;
6392;SDS011;3229;42.674;23.282;2024-02-15T02:25:03;5.50;;;4.73;;
6392;SDS011;3229;42.674;23.282;2024-02-15T02:27:33;6.30;;;4.80;;
6392;SDS011;3229;42.674;23.282;2024-02-15T02:30:02;5.53;;;4.57;;
6392;SDS011;3229;42.674;23.282;2024-02-15T02:32:32;7.53;;;5.07;;
6392;SDS011;3229;42.674;23.282;2024-02-15T02:34:59;5.70;;;5.10;;
6392;SDS011;3229;42.674;23.282;2024-02-15T02:37:26;6.53;;;5.03;;
6392;SDS011;3229;42.674;23.282;2024-02-15T02:39:53;6.10;;;5.33;;
6392;SDS011;3229;42.674;23.282;2024-02-15T02:42:21;5.17;;;4.67;;
6392;SDS011;3229;42.674;23.282;2024-02-15T02:44:49;7.33;;;4.87;;
6392;SDS011;3229;42.674;23.282;2024-02-15T02:47:15;6.30;;;4.57;;
6392;SDS011;3229;42.674;23.282;2024-02-15T02:49:43;5.60;;;4.83;;
6392;SDS011;3229;42.674;23.282;2024-02-15T02:52:10;7.50;;;4.87;;
6392;SDS011;3229;42.674;23.282;2024-02-15T02:54:36;5.80;;;4.60;;
6392;SDS011;3229;42.674;23.282;2024-02-15T02:57:03;5.30;;;4.80;;
6392;SDS011;3229;42.674;23.282;2024-02-15T02:59:33;5.10;;;4.60;;
6392;SDS011;3229;42.674;23.282;2024-02-15T03:02:01;5.40;;;4.50;;
6392;SDS011;3229;42.674;23.282;2024-02-15T03:04:29;5.87;;;4.70;;
6392;SDS011;3229;42.674;23.282;2024-02-15T03:06:55;4.80;;;4.40;;
6392;SDS011;3229;42.674;23.282;2024-02-15T03:09:23;6.20;;;4.70;;
6392;SDS011;3229;42.674;23.282;2024-02-15T03:11:54;5.57;;;5.00;;
6392;SDS011;3229;42.674;23.282;2024-02-15T03:14:21;5.10;;;4.60;;
6392;SDS011;3229;42.674;23.282;2024-02-15T03:16:49;5.87;;;4.50;;
6392;SDS011;3229;42.674;23.282;2024-02-15T03:19:16;5.43;;;4.90;;
6392;SDS011;3229;42.674;23.282;2024-02-15T03:21:42;7.10;;;5.07;;
6392;SDS011;3229;42.674;23.282;2024-02-15T03:24:11;7.70;;;5.17;;
6392;SDS011;3229;42.674;23.282;2024-02-15T03:26:38;5.93;;;5.33;;
6392;SDS011;3229;42.674;23.282;2024-02-15T03:29:07;5.73;;;5.17;;
6392;SDS011;3229;42.674;23.282;2024-02-15T03:31:35;6.43;;;5.00;;
6392;SDS011;3229;42.674;23.282;2024-02-15T03:34:04;6.23;;;4.77;;
6392;SDS011;3229;42.674;23.282;2024-02-15T03:36:30;5.97;;;5.47;;
6392;SDS011;3229;42.674;23.282;2024-02-15T03:38:56;5.53;;;5.03;;
6392;SDS011;3229;42.674;23.282;2024-02-15T03:41:23;5.93;;;4.80;;
6392;SDS011;3229;42.674;23.282;2024-02-15T03:43:55;5.47;;;4.93;;
6392;SDS011;3229;42.674;23.282;2024-02-15T03:46:23;8.73;;;5.30;;
6392;SDS011;3229;42.674;23.282;2024-02-15T03:48:50;5.97;;;5.33;;
6392;SDS011;3229;42.674;23.282;2024-02-15T03:51:19;6.13;;;5.53;;
6392;SDS011;3229;42.674;23.282;2024-02-15T03:53:48;5.63;;;5.03;;
6392;SDS011;3229;42.674;23.282;2024-02-15T03:56:15;6.57;;;5.33;;
6392;SDS011;3229;42.674;23.282;2024-02-15T03:58:42;6.47;;;5.10;;
6392;SDS011;3229;42.674;23.282;2024-02-15T04:01:09;6.63;;;5.10;;
6392;SDS011;3229;42.674;23.282;2024-02-15T04:03:38;8.00;;;5.40;;
6392;SDS011;3229;42.674;23.282;2024-02-15T04:06:05;6.27;;;5.60;;
6392;SDS011;3229;42.674;23.282;2024-02-15T04:08:33;6.43;;;5.47;;
6392;SDS011;3229;42.674;23.282;2024-02-15T04:11:04;6.73;;;5.07;;
6392;SDS011;3229;42.674;23.282;2024-02-15T04:13:32;6.53;;;4.90;;
6392;SDS011;3229;42.674;23.282;2024-02-15T04:15:59;6.87;;;5.27;;
6392;SDS011;3229;42.674;23.282;2024-02-15T04:18:26;7.63;;;5.43;;
6392;SDS011;3229;42.674;23.282;2024-02-15T04:20:57;6.67;;;5.63;;
6392;SDS011;3229;42.674;23.282;2024-02-15T04:23:24;5.43;;;4.93;;
6392;SDS011;3229;42.674;23.282;2024-02-15T04:25:52;5.87;;;5.27;;
6392;SDS011;3229;42.674;23.282;2024-02-15T04:28:19;7.87;;;5.30;;
6392;SDS011;3229;42.674;23.282;2024-02-15T04:30:46;6.03;;;5.20;;
6392;SDS011;3229;42.674;23.282;2024-02-15T04:33:14;6.73;;;5.40;;
6392;SDS011;3229;42.674;23.282;2024-02-15T04:35:41;5.57;;;4.87;;
6392;SDS011;3229;42.674;23.282;2024-02-15T04:38:08;5.87;;;5.27;;
6392;SDS011;3229;42.674;23.282;2024-02-15T04:40:35;7.67;;;6.00;;
6392;SDS011;3229;42.674;23.282;2024-02-15T04:43:04;6.40;;;5.37;;
6392;SDS011;3229;42.674;23.282;2024-02-15T04:45:32;5.93;;;5.33;;
6392;SDS011;3229;42.674;23.282;2024-02-15T04:47:58;6.03;;;5.00;;
6392;SDS011;3229;42.674;23.282;2024-02-15T04:50:27;6.93;;;5.63;;
6392;SDS011;3229;42.674;23.282;2024-02-15T04:52:54;7.23;;;5.73;;
6392;SDS011;3229;42.674;23.282;2024-02-15T04:55:21;8.70;;;5.70;;
6392;SDS011;3229;42.674;23.282;2024-02-15T04:57:48;5.07;;;4.57;;
6392;SDS011;3229;42.674;23.282;2024-02-15T05:00:21;6.70;;;6.00;;
6392;SDS011;3229;42.674;23.282;2024-02-15T05:02:50;5.33;;;4.77;;
6392;SDS011;3229;42.674;23.282;2024-02-15T05:05:17;7.37;;;6.00;;
6392;SDS011;3229;42.674;23.282;2024-02-15T05:07:45;7.03;;;5.60;;
6392;SDS011;3229;42.674;23.282;2024-02-15T05:10:14;7.77;;;5.10;;
6392;SDS011;3229;42.674;23.282;2024-02-15T05:12:42;7.00;;;5.93;;
6392;SDS011;3229;42.674;23.282;2024-02-15T05:15:09;6.50;;;5.80;;
6392;SDS011;3229;42.674;23.282;2024-02-15T05:17:38;8.40;;;5.40;;
6392;SDS011;3229;42.674;23.282;2024-02-15T05:20:07;11.93;;;6.60;;
6392;SDS011;3229;42.674;23.282;2024-02-15T05:22:37;7.00;;;5.23;;
6392;SDS011;3229;42.674;23.282;2024-02-15T05:25:05;7.80;;;5.57;;
6392;SDS011;3229;42.674;23.282;2024-02-15T05:27:33;6.40;;;5.43;;
6392;SDS011;3229;42.674;23.282;2024-02-15T05:30:01;6.47;;;5.50;;
6392;SDS011;3229;42.674;23.282;2024-02-15T05:32:32;7.10;;;6.00;;
6392;SDS011;3229;42.674;23.282;2024-02-15T05:35:01;6.23;;;5.60;;
6392;SDS011;3229;42.674;23.282;2024-02-15T05:37:28;6.17;;;5.67;;
6392;SDS011;3229;42.674;23.282;2024-02-15T05:39:55;8.13;;;5.80;;
6392;SDS011;3229;42.674;23.282;2024-02-15T05:42:22;10.50;;;4.90;;
6392;SDS011;3229;42.674;23.282;2024-02-15T05:44:49;14.67;;;5.00;;
6392;SDS011;3229;42.674;23.282;2024-02-15T05:47:16;6.17;;;4.40;;
6392;SDS011;3229;42.674;23.282;2024-02-15T05:49:42;6.67;;;3.93;;
6392;SDS011;3229;42.674;23.282;2024-02-15T05:52:11;7.73;;;3.90;;
6392;SDS011;3229;42.674;23.282;2024-02-15T05:54:38;4.83;;;3.70;;
6392;SDS011;3229;42.674;23.282;2024-02-15T05:57:06;4.83;;;3.97;;
6392;SDS011;3229;42.674;23.282;2024-02-15T05:59:34;5.57;;;4.13;;
6392;SDS011;3229;42.674;23.282;2024-02-15T06:02:01;7.23;;;4.67;;
6392;SDS011;3229;42.674;23.282;2024-02-15T06:04:28;10.63;;;5.00;;
6392;SDS011;3229;42.674;23.282;2024-02-15T06:06:55;11.80;;;4.40;;
6392;SDS011;3229;42.674;23.282;2024-02-15T06:09:27;5.73;;;4.30;;
6392;SDS011;3229;42.674;23.282;2024-02-15T06:11:55;5.77;;;4.50;;
6392;SDS011;3229;42.674;23.282;2024-02-15T06:14:23;5.47;;;4.53;;
6392;SDS011;3229;42.674;23.282;2024-02-15T06:16:49;8.37;;;4.83;;
6392;SDS011;3229;42.674;23.282;2024-02-15T06:19:17;10.90;;;5.30;;
6392;SDS011;3229;42.674;23.282;2024-02-15T06:21:44;6.93;;;4.63;;
6392;SDS011;3229;42.674;23.282;2024-02-15T06:24:12;10.13;;;5.53;;
6392;SDS011;3229;42.674;23.282;2024-02-15T06:26:40;6.43;;;5.70;;
6392;SDS011;3229;42.674;23.282;2024-02-15T06:29:07;9.10;;;5.73;;
6392;SDS011;3229;42.674;23.282;2024-02-15T06:31:48;8.70;;;5.47;;
6392;SDS011;3229;42.674;23.282;2024-02-15T06:34:28;7.43;;;5.80;;
6392;SDS011;3229;42.674;23.282;2024-02-15T06:37:17;7.00;;;5.80;;
6392;SDS011;3229;42.674;23.282;2024-02-15T06:40:20;7.93;;;5.47;;
6392;SDS011;3229;42.674;23.282;2024-02-15T06:42:49;7.80;;;5.73;;
6392;SDS011;3229;42.674;23.282;2024-02-15T06:45:15;6.43;;;5.57;;
6392;SDS011;3229;42.674;23.282;2024-02-15T06:47:43;6.10;;;5.47;;
6392;SDS011;3229;42.674;23.282;2024-02-15T06:50:10;14.57;;;7.33;;
6392;SDS011;3229;42.674;23.282;2024-02-15T06:52:37;10.43;;;6.13;;
6392;SDS011;3229;42.674;23.282;2024-02-15T06:55:06;7.07;;;5.70;;
6392;SDS011;3229;42.674;23.282;2024-02-15T06:57:34;7.33;;;5.63;;
6392;SDS011;3229;42.674;23.282;2024-02-15T07:00:03;8.10;;;5.57;;
6392;SDS011;3229;42.674;23.282;2024-02-15T07:02:32;8.90;;;6.80;;
6392;SDS011;3229;42.674;23.282;2024-02-15T07:04:59;9.00;;;6.23;;
6392;SDS011;3229;42.674;23.282;2024-02-15T07:07:27;12.00;;;6.13;;
6392;SDS011;3229;42.674;23.282;2024-02-15T07:09:54;10.13;;;6.23;;
6392;SDS011;3229;42.674;23.282;2024-02-15T07:12:21;7.23;;;5.80;;
6392;SDS011;3229;42.674;23.282;2024-02-15T07:14:48;8.37;;;5.30;;
6392;SDS011;3229;42.674;23.282;2024-02-15T07:17:16;8.97;;;6.03;;
6392;SDS011;3229;42.674;23.282;2024-02-15T07:19:43;8.33;;;5.40;;
6392;SDS011;3229;42.674;23.282;2024-02-15T07:22:10;8.27;;;5.73;;
6392;SDS011;3229;42.674;23.282;2024-02-15T07:24:37;7.53;;;5.60;;
6392;SDS011;3229;42.674;23.282;2024-02-15T07:27:04;7.43;;;4.90;;
6392;SDS011;3229;42.674;23.282;2024-02-15T07:29:31;5.53;;;4.40;;
6392;SDS011;3229;42.674;23.282;2024-02-15T07:32:00;7.47;;;4.67;;
6392;SDS011;3229;42.674;23.282;2024-02-15T07:34:30;7.20;;;4.33;;
6392;SDS011;3229;42.674;23.282;2024-02-15T07:36:57;5.47;;;4.23;;
6392;SDS011;3229;42.674;23.282;2024-02-15T07:39:24;4.37;;;3.97;;
6392;SDS011;3229;42.674;23.282;2024-02-15T07:41:53;4.03;;;3.63;;
6392;SDS011;3229;42.674;23.282;2024-02-15T07:44:20;4.87;;;3.80;;
6392;SDS011;3229;42.674;23.282;2024-02-15T07:46:47;3.93;;;3.50;;
6392;SDS011;3229;42.674;23.282;2024-02-15T07:49:15;5.53;;;3.70;;
6392;SDS011;3229;42.674;23.282;2024-02-15T07:51:44;3.53;;;3.23;;
6392;SDS011;3229;42.674;23.282;2024-02-15T07:54:17;4.43;;;4.00;;
6392;SDS011;3229;42.674;23.282;2024-02-15T07:56:46;6.10;;;3.85;;
6392;SDS011;3229;42.674;23.282;2024-02-15T07:59:13;4.10;;;3.70;;
6392;SDS011;3229;42.674;23.282;2024-02-15T08:01:41;3.63;;;3.25;;
6392;SDS011;3229;42.674;23.282;2024-02-15T08:04:08;4.20;;;3.65;;
6392;SDS011;3229;42.674;23.282;2024-02-15T08:06:35;4.63;;;3.35;;
6392;SDS011;3229;42.674;23.282;2024-02-15T08:09:04;5.50;;;4.10;;
6392;SDS011;3229;42.674;23.282;2024-02-15T08:11:31;5.15;;;3.55;;
6392;SDS011;3229;42.674;23.282;2024-02-15T08:13:58;4.22;;;3.20;;
6392;SDS011;3229;42.674;23.282;2024-02-15T08:16:25;3.45;;;3.17;;
6392;SDS011;3229;42.674;23.282;2024-02-15T08:18:53;3.50;;;3.20;;
6392;SDS011;3229;42.674;23.282;2024-02-15T08:21:24;4.97;;;4.47;;
6392;SDS011;3229;42.674;23.282;2024-02-15T08:23:52;4.82;;;3.78;;
6392;SDS011;3229;42.674;23.282;2024-02-15T08:26:21;4.28;;;3.88;;
6392;SDS011;3229;42.674;23.282;2024-02-15T08:28:48;3.90;;;3.50;;
6392;SDS011;3229;42.674;23.282;2024-02-15T08:31:15;4.03;;;3.65;;
6392;SDS011;3229;42.674;23.282;2024-02-15T08:33:42;3.95;;;3.53;;
6392;SDS011;3229;42.674;23.282;2024-02-15T08:36:09;6.57;;;4.30;;
6392;SDS011;3229;42.674;23.282;2024-02-15T08:38:36;5.70;;;3.60;;
6392;SDS011;3229;42.674;23.282;2024-02-15T08:41:03;6.32;;;4.10;;
6392;SDS011;3229;42.674;23.282;2024-02-15T08:43:33;4.97;;;3.47;;
6392;SDS011;3229;42.674;23.282;2024-02-15T08:46:05;4.00;;;3.60;;
6392;SDS011;3229;42.674;23.282;2024-02-15T08:48:32;5.90;;;4.07;;
6392;SDS011;3229;42.674;23.282;2024-02-15T08:50:58;5.43;;;3.70;;
6392;SDS011;3229;42.674;23.282;2024-02-15T08:53:25;4.75;;;4.03;;
6392;SDS011;3229;42.674;23.282;2024-02-15T08:55:52;5.68;;;4.22;;
6392;SDS011;3229;42.674;23.282;2024-02-15T08:58:19;4.50;;;4.10;;
6392;SDS011;3229;42.674;23.282;2024-02-15T09:00:47;6.18;;;4.05;;
6392;SDS011;3229;42.674;23.282;2024-02-15T09:03:14;6.50;;;3.95;;
6392;SDS011;3229;42.674;23.282;2024-02-15T09:05:41;4.17;;;3.77;;
6392;SDS011;3229;42.674;23.282;2024-02-15T09:08:08;5.40;;;4.57;;
6392;SDS011;3229;42.674;23.282;2024-02-15T09:10:35;4.40;;;4.00;;
6392;SDS011;3229;42.674;23.282;2024-02-15T09:13:05;6.60;;;4.07;;
6392;SDS011;3229;42.674;23.282;2024-02-15T09:15:32;5.00;;;4.50;;
6392;SDS011;3229;42.674;23.282;2024-02-15T09:18:00;4.83;;;4.27;;
6392;SDS011;3229;42.674;23.282;2024-02-15T09:20:27;4.70;;;4.27;;
6392;SDS011;3229;42.674;23.282;2024-02-15T09:22:56;6.27;;;4.20;;
6392;SDS011;3229;42.674;23.282;2024-02-15T09:25:23;6.37;;;4.60;;
6392;SDS011;3229;42.674;23.282;2024-02-15T09:27:50;4.40;;;4.00;;
6392;SDS011;3229;42.674;23.282;2024-02-15T09:30:19;5.27;;;4.77;;
6392;SDS011;3229;42.674;23.282;2024-02-15T09:32:49;4.37;;;3.97;;
6392;SDS011;3229;42.674;23.282;2024-02-15T09:35:18;3.73;;;3.43;;
6392;SDS011;3229;42.674;23.282;2024-02-15T09:37:46;4.03;;;3.60;;
6392;SDS011;3229;42.674;23.282;2024-02-15T09:40:14;7.60;;;4.67;;
6392;SDS011;3229;42.674;23.282;2024-02-15T09:42:43;5.97;;;5.10;;
6392;SDS011;3229;42.674;23.282;2024-02-15T09:45:11;4.30;;;3.90;;
6392;SDS011;3229;42.674;23.282;2024-02-15T09:47:39;5.50;;;3.57;;
6392;SDS011;3229;42.674;23.282;2024-02-15T09:50:07;5.63;;;3.90;;
6392;SDS011;3229;42.674;23.282;2024-02-15T09:52:38;4.83;;;4.20;;
6392;SDS011;3229;42.674;23.282;2024-02-15T09:55:06;6.43;;;4.47;;
6392;SDS011;3229;42.674;23.282;2024-02-15T09:57:38;4.37;;;3.90;;
6392;SDS011;3229;42.674;23.282;2024-02-15T10:00:05;4.87;;;4.20;;
6392;SDS011;3229;42.674;23.282;2024-02-15T10:02:33;4.30;;;3.83;;
6392;SDS011;3229;42.674;23.282;2024-02-15T10:05:02;5.37;;;4.27;;
6392;SDS011;3229;42.674;23.282;2024-02-15T10:07:29;4.37;;;3.97;;
6392;SDS011;3229;42.674;23.282;2024-02-15T10:09:57;5.17;;;3.80;;
6392;SDS011;3229;42.674;23.282;2024-02-15T10:12:42;3.77;;;3.40;;
6392;SDS011;3229;42.674;23.282;2024-02-15T10:15:09;4.60;;;4.20;;
6392;SDS011;3229;42.674;23.282;2024-02-15T10:17:36;4.10;;;3.70;;
6392;SDS011;3229;42.674;23.282;2024-02-15T10:20:03;4.70;;;3.63;;
6392;SDS011;3229;42.674;23.282;2024-02-15T10:22:30;4.20;;;3.80;;
6392;SDS011;3229;42.674;23.282;2024-02-15T10:25:11;4.90;;;3.73;;
6392;SDS011;3229;42.674;23.282;2024-02-15T10:27:39;5.30;;;4.10;;
6392;SDS011;3229;42.674;23.282;2024-02-15T10:30:16;4.57;;;4.17;;
6392;SDS011;3229;42.674;23.282;2024-02-15T10:32:45;5.20;;;4.20;;
6392;SDS011;3229;42.674;23.282;2024-02-15T10:35:22;5.73;;;4.20;;
6392;SDS011;3229;42.674;23.282;2024-02-15T10:37:49;4.57;;;4.03;;
6392;SDS011;3229;42.674;23.282;2024-02-15T10:40:19;4.20;;;3.80;;
6392;SDS011;3229;42.674;23.282;2024-02-15T10:42:47;5.83;;;3.97;;
6392;SDS011;3229;42.674;23.282;2024-02-15T10:45:15;6.33;;;3.60;;
6392;SDS011;3229;42.674;23.282;2024-02-15T10:47:46;3.97;;;3.33;;
6392;SDS011;3229;42.674;23.282;2024-02-15T10:50:13;5.77;;;3.70;;
6392;SDS011;3229;42.674;23.282;2024-02-15T10:52:43;6.83;;;4.67;;
6392;SDS011;3229;42.674;23.282;2024-02-15T10:55:25;6.50;;;5.07;;
6392;SDS011;3229;42.674;23.282;2024-02-15T10:58:03;7.93;;;5.47;;
6392;SDS011;3229;42.674;23.282;2024-02-15T11:00:32;10.53;;;5.43;;
6392;SDS011;3229;42.674;23.282;2024-02-15T11:03:03;5.33;;;4.83;;
6392;SDS011;3229;42.674;23.282;2024-02-15T11:05:32;6.33;;;5.37;;
6392;SDS011;3229;42.674;23.282;2024-02-15T11:08:01;5.77;;;4.70;;
6392;SDS011;3229;42.674;23.282;2024-02-15T11:10:33;5.07;;;3.00;;
6392;SDS011;3229;42.674;23.282;2024-02-15T11:13:00;4.50;;;3.23;;
6392;SDS011;3229;42.674;23.282;2024-02-15T11:15:39;3.10;;;2.80;;
6392;SDS011;3229;42.674;23.282;2024-02-15T11:18:10;4.27;;;2.90;;
6392;SDS011;3229;42.674;23.282;2024-02-15T11:20:46;4.10;;;3.00;;
6392;SDS011;3229;42.674;23.282;2024-02-15T11:23:24;7.33;;;3.50;;
6392;SDS011;3229;42.674;23.282;2024-02-15T11:25:54;5.23;;;3.13;;
6392;SDS011;3229;42.674;23.282;2024-02-15T11:40:14;4.70;;;3.60;;
6392;SDS011;3229;42.674;23.282;2024-02-15T11:42:43;8.33;;;3.13;;
6392;SDS011;3229;42.674;23.282;2024-02-15T11:45:11;9.17;;;3.40;;
6392;SDS011;3229;42.674;23.282;2024-02-15T11:47:38;5.83;;;3.33;;
6392;SDS011;3229;42.674;23.282;2024-02-15T11:50:08;6.73;;;3.50;;
6392;SDS011;3229;42.674;23.282;2024-02-15T11:52:37;3.50;;;3.20;;
6392;SDS011;3229;42.674;23.282;2024-02-15T11:55:05;6.13;;;3.80;;
6392;SDS011;3229;42.674;23.282;2024-02-15T11:57:35;3.33;;;3.00;;
6392;SDS011;3229;42.674;23.282;2024-02-15T12:00:20;3.67;;;3.37;;
6392;SDS011;3229;42.674;23.282;2024-02-15T12:03:05;3.53;;;3.23;;
6392;SDS011;3229;42.674;23.282;2024-02-15T12:05:49;5.47;;;3.80;;
6392;SDS011;3229;42.674;23.282;2024-02-15T12:08:34;3.63;;;3.23;;
6392;SDS011;3229;42.674;23.282;2024-02-15T12:11:19;3.73;;;2.83;;
6392;SDS011;3229;42.674;23.282;2024-02-15T12:14:03;3.50;;;3.20;;
6392;SDS011;3229;42.674;23.282;2024-02-15T12:16:48;4.73;;;3.60;;
6392;SDS011;3229;42.674;23.282;2024-02-15T12:19:42;3.93;;;3.33;;
6392;SDS011;3229;42.674;23.282;2024-02-15T12:22:09;3.50;;;3.17;;
6392;SDS011;3229;42.674;23.282;2024-02-15T12:24:36;3.80;;;3.50;;
6392;SDS011;3229;42.674;23.282;2024-02-15T12:27:03;3.80;;;3.43;;
6392;SDS011;3229;42.674;23.282;2024-02-15T12:29:31;3.17;;;2.90;;
6392;SDS011;3229;42.674;23.282;2024-02-15T12:32:01;4.97;;;3.50;;
6392;SDS011;3229;42.674;23.282;2024-02-15T12:34:28;3.93;;;3.20;;
6392;SDS011;3229;42.674;23.282;2024-02-15T12:37:04;3.50;;;3.20;;
6392;SDS011;3229;42.674;23.282;2024-02-15T12:39:34;5.07;;;3.30;;
6392;SDS011;3229;42.674;23.282;2024-02-15T12:42:02;4.13;;;3.40;;
6392;SDS011;3229;42.674;23.282;2024-02-15T12:44:34;4.03;;;3.13;;
6392;SDS011;3229;42.674;23.282;2024-02-15T12:47:03;3.23;;;2.93;;
6392;SDS011;3229;42.674;23.282;2024-02-15T12:49:31;4.67;;;3.37;;
6392;SDS011;3229;42.674;23.282;2024-02-15T12:55:11;5.07;;;3.80;;
6392;SDS011;3229;42.674;23.282;2024-02-15T12:57:42;3.40;;;3.00;;
6392;SDS011;3229;42.674;23.282;2024-02-15T13:00:13;3.50;;;3.20;;
6392;SDS011;3229;42.674;23.282;2024-02-15T13:02:44;6.37;;;3.20;;
6392;SDS011;3229;42.674;23.282;2024-02-15T13:05:12;3.70;;;3.40;;
6392;SDS011;3229;42.674;23.282;2024-02-15T13:07:39;3.53;;;3.23;;
6392;SDS011;3229;42.674;23.282;2024-02-15T13:10:06;3.67;;;3.37;;
6392;SDS011;3229;42.674;23.282;2024-02-15T13:12:34;4.27;;;3.10;;
6392;SDS011;3229;42.674;23.282;2024-02-15T13:15:01;4.00;;;3.53;;
6392;SDS011;3229;42.674;23.282;2024-02-15T13:17:30;6.43;;;3.57;;
6392;SDS011;3229;42.674;23.282;2024-02-15T13:19:58;3.33;;;3.03;;
6392;SDS011;3229;42.674;23.282;2024-02-15T13:22:29;4.97;;;3.10;;
6392;SDS011;3229;42.674;23.282;2024-02-15T13:24:57;5.40;;;3.33;;
6392;SDS011;3229;42.674;23.282;2024-02-15T13:27:24;5.10;;;3.70;;
6392;SDS011;3229;42.674;23.282;2024-02-15T13:29:51;3.10;;;2.90;;
6392;SDS011;3229;42.674;23.282;2024-02-15T13:32:18;4.30;;;3.47;;
6392;SDS011;3229;42.674;23.282;2024-02-15T13:34:47;3.70;;;3.27;;
6392;SDS011;3229;42.674;23.282;2024-02-15T13:37:19;5.87;;;3.40;;
6392;SDS011;3229;42.674;23.282;2024-02-15T13:39:47;6.60;;;3.30;;
6392;SDS011;3229;42.674;23.282;2024-02-15T13:42:14;4.83;;;3.43;;
6392;SDS011;3229;42.674;23.282;2024-02-15T13:44:42;4.80;;;3.50;;
6392;SDS011;3229;42.674;23.282;2024-02-15T13:47:09;3.80;;;3.40;;
6392;SDS011;3229;42.674;23.282;2024-02-15T13:49:37;3.77;;;3.10;;
6392;SDS011;3229;42.674;23.282;2024-02-15T13:52:04;3.50;;;2.83;;
6392;SDS011;3229;42.674;23.282;2024-02-15T13:54:34;3.47;;;3.13;;
6392;SDS011;3229;42.674;23.282;2024-02-15T13:57:01;4.30;;;3.50;;
6392;SDS011;3229;42.674;23.282;2024-02-15T13:59:28;3.40;;;3.10;;
6392;SDS011;3229;42.674;23.282;2024-02-15T14:01:55;3.73;;;3.13;;
6392;SDS011;3229;42.674;23.282;2024-02-15T14:04:23;3.43;;;3.13;;
6392;SDS011;3229;42.674;23.282;2024-02-15T14:06:53;5.23;;;3.43;;
6392;SDS011;3229;42.674;23.282;2024-02-15T14:09:21;4.60;;;3.67;;
6392;SDS011;3229;42.674;23.282;2024-02-15T14:11:52;3.50;;;3.20;;
6392;SDS011;3229;42.674;23.282;2024-02-15T14:14:20;3.93;;;3.47;;
6392;SDS011;3229;42.674;23.282;2024-02-15T14:16:47;5.03;;;3.43;;
6392;SDS011;3229;42.674;23.282;2024-02-15T14:19:14;4.60;;;3.40;;
6392;SDS011;3229;42.674;23.282;2024-02-15T14:21:40;3.87;;;3.47;;
6392;SDS011;3229;42.674;23.282;2024-02-15T14:24:10;3.47;;;3.17;;
6392;SDS011;3229;42.674;23.282;2024-02-15T14:26:37;5.13;;;3.20;;
6392;SDS011;3229;42.674;23.282;2024-02-15T14:29:05;3.90;;;3.30;;
6392;SDS011;3229;42.674;23.282;2024-02-15T14:31:32;4.43;;;3.47;;
6392;SDS011;3229;42.674;23.282;2024-02-15T14:34:16;4.37;;;3.67;;
6392;SDS011;3229;42.674;23.282;2024-02-15T14:36:45;4.17;;;3.50;;
6392;SDS011;3229;42.674;23.282;2024-02-15T14:39:12;3.73;;;3.43;;
6392;SDS011;3229;42.674;23.282;2024-02-15T14:41:39;4.27;;;3.60;;
6392;SDS011;3229;42.674;23.282;2024-02-15T14:44:09;5.30;;;4.17;;
6392;SDS011;3229;42.674;23.282;2024-02-15T14:46:37;5.17;;;3.30;;
6392;SDS011;3229;42.674;23.282;2024-02-15T14:49:05;5.67;;;3.37;;
6392;SDS011;3229;42.674;23.282;2024-02-15T14:51:33;5.10;;;3.50;;
6392;SDS011;3229;42.674;23.282;2024-02-15T14:54:02;5.73;;;3.30;;
6392;SDS011;3229;42.674;23.282;2024-02-15T14:56:29;5.23;;;3.80;;
6392;SDS011;3229;42.674;23.282;2024-02-15T14:58:57;3.87;;;3.37;;
6392;SDS011;3229;42.674;23.282;2024-02-15T15:01:26;5.03;;;3.50;;
6392;SDS011;3229;42.674;23.282;2024-02-15T15:03:54;4.27;;;3.60;;
6392;SDS011;3229;42.674;23.282;2024-02-15T15:06:23;6.83;;;3.13;;
6392;SDS011;3229;42.674;23.282;2024-02-15T15:09:08;6.87;;;3.67;;
6392;SDS011;3229;42.674;23.282;2024-02-15T15:11:53;3.83;;;3.43;;
6392;SDS011;3229;42.674;23.282;2024-02-15T15:14:38;3.90;;;3.43;;
6392;SDS011;3229;42.674;23.282;2024-02-15T15:17:08;3.83;;;3.53;;
6392;SDS011;3229;42.674;23.282;2024-02-15T15:19:37;4.07;;;3.47;;
6392;SDS011;3229;42.674;23.282;2024-02-15T15:22:04;3.90;;;3.50;;
6392;SDS011;3229;42.674;23.282;2024-02-15T15:24:32;6.30;;;3.77;;
6392;SDS011;3229;42.674;23.282;2024-02-15T15:26:59;3.30;;;3.10;;